createdAt,value
2023-01-15T00:01:24.185Z,99809.00
2023-01-15T00:03:54.208Z,99813.09
2023-01-15T00:06:27.886Z,99796.06
2023-01-15T00:08:57.571Z,99795.47
2023-01-15T00:11:26.676Z,99793.38
2023-01-15T00:13:55.872Z,99785.81
2023-01-15T00:16:26.733Z,99793.66
2023-01-15T00:18:57.869Z,99789.94
2023-01-15T00:21:29.880Z,99781.66
2023-01-15T00:24:16.549Z,99793.81
2023-01-15T00:27:04.655Z,99782.59
2023-01-15T00:29:35.144Z,99789.19
2023-01-15T00:32:08.313Z,99775.56
2023-01-15T00:34:37.578Z,99775.19
2023-01-15T00:37:07.718Z,99778.63
2023-01-15T00:39:36.379Z,99783.44
2023-01-15T00:42:05.077Z,99791.81
2023-01-15T00:44:34.321Z,99783.00
2023-01-15T00:47:03.154Z,99783.97
2023-01-15T00:49:31.632Z,99778.25
2023-01-15T00:52:00.352Z,99771.25
2023-01-15T00:54:30.546Z,99782.44
2023-01-15T00:56:59.208Z,99783.19
2023-01-15T00:59:27.923Z,99791.66
2023-01-15T01:01:57.421Z,99783.19
2023-01-15T01:04:26.433Z,99791.50
2023-01-15T01:06:55.419Z,99779.19
2023-01-15T01:09:24.498Z,99786.63
2023-01-15T01:11:55.115Z,99796.41
2023-01-15T01:14:24.224Z,99787.19
2023-01-15T01:16:53.011Z,99794.91
2023-01-15T01:19:24.666Z,99792.13
2023-01-15T01:21:54.520Z,99794.50
2023-01-15T01:24:25.644Z,99801.47
2023-01-15T01:26:56.166Z,99807.19
2023-01-15T01:29:25.959Z,99816.63
2023-01-15T01:31:54.865Z,99810.44
2023-01-15T01:34:23.328Z,99820.31
2023-01-15T01:36:52.000Z,99815.78
2023-01-15T01:39:21.942Z,99823.75
2023-01-15T01:41:50.598Z,99813.00
2023-01-15T01:45:07.272Z,99820.13
2023-01-15T01:47:36.722Z,99824.72
2023-01-15T01:50:10.831Z,99824.72
2023-01-15T01:52:46.662Z,99825.47
2023-01-15T01:55:17.518Z,99832.88
2023-01-15T01:57:48.514Z,99814.13
2023-01-15T02:00:26.921Z,99820.16
2023-01-15T02:02:56.185Z,99806.53
2023-01-15T02:05:32.073Z,99807.88
2023-01-15T02:08:02.906Z,99800.13
2023-01-15T02:10:34.114Z,99808.72
2023-01-15T02:13:09.565Z,99805.19
2023-01-15T02:15:47.091Z,99807.00
2023-01-15T02:18:25.253Z,99814.13
2023-01-15T02:21:00.407Z,99809.00
2023-01-15T02:24:03.291Z,99799.78
2023-01-15T02:27:08.369Z,99794.25
2023-01-15T02:29:55.231Z,99808.31
2023-01-15T02:32:35.379Z,99796.03
2023-01-15T02:35:11.353Z,99791.69
2023-01-15T02:37:48.102Z,99788.03
2023-01-15T02:40:18.559Z,99795.59
2023-01-15T02:42:50.789Z,99797.06
2023-01-15T02:45:27.291Z,99799.19
2023-01-15T02:48:02.121Z,99792.31
2023-01-15T02:50:37.853Z,99799.09
2023-01-15T02:53:12.051Z,99794.06
2023-01-15T02:55:46.057Z,99794.16
2023-01-15T02:58:22.800Z,99792.31
2023-01-15T03:00:56.566Z,99781.78
2023-01-15T03:03:35.254Z,99787.94
2023-01-15T03:06:12.200Z,99780.03
2023-01-15T03:08:41.752Z,99780.72
2023-01-15T03:11:13.731Z,99778.25
2023-01-15T03:13:52.124Z,99779.94
2023-01-15T03:16:46.411Z,99775.94
2023-01-15T03:19:44.567Z,99767.19
2023-01-15T03:22:22.904Z,99766.63
2023-01-15T03:24:56.303Z,99762.06
2023-01-15T03:27:25.720Z,99771.59
2023-01-15T03:30:06.039Z,99778.25
2023-01-15T03:32:35.336Z,99767.41
2023-01-15T03:35:06.367Z,99770.06
2023-01-15T03:37:35.415Z,99772.94
2023-01-15T03:40:05.382Z,99768.53
2023-01-15T03:43:12.059Z,99773.03
2023-01-15T03:45:45.786Z,99767.31
2023-01-15T03:48:25.914Z,99779.66
2023-01-15T03:51:04.434Z,99784.09
2023-01-15T03:53:40.323Z,99763.72
2023-01-15T03:56:16.149Z,99761.66
2023-01-15T03:58:51.026Z,99758.56
2023-01-15T04:01:27.807Z,99759.56
2023-01-15T04:03:59.096Z,99754.22
2023-01-15T04:06:30.667Z,99761.38
2023-01-15T04:09:00.978Z,99763.69
2023-01-15T04:11:30.149Z,99764.34
2023-01-15T04:13:59.352Z,99755.03
2023-01-15T04:16:33.203Z,99764.34
2023-01-15T04:19:46.497Z,99764.53
2023-01-15T04:22:36.167Z,99756.97
2023-01-15T04:25:25.162Z,99754.19
2023-01-15T04:28:14.102Z,99759.19
2023-01-15T04:30:44.219Z,99757.19
2023-01-15T04:33:34.619Z,99753.19
2023-01-15T04:36:23.167Z,99750.06
2023-01-15T04:39:11.963Z,99765.88
2023-01-15T04:42:18.084Z,99750.03
2023-01-15T04:45:09.549Z,99758.81
2023-01-15T04:47:57.962Z,99746.50
2023-01-15T04:50:48.240Z,99743.56
2023-01-15T04:53:37.085Z,99751.47
2023-01-15T04:56:25.622Z,99748.56
2023-01-15T04:59:16.360Z,99743.31
2023-01-15T05:02:02.009Z,99746.63
2023-01-15T05:04:51.753Z,99742.09
2023-01-15T05:07:41.617Z,99738.34
2023-01-15T05:10:32.798Z,99738.53
2023-01-15T05:13:21.593Z,99739.94
2023-01-15T05:16:15.880Z,99747.66
2023-01-15T05:19:04.686Z,99739.63
2023-01-15T05:21:35.721Z,99727.50
2023-01-15T05:24:08.911Z,99717.50
2023-01-15T05:26:37.867Z,99731.78
2023-01-15T05:29:07.231Z,99730.03
2023-01-15T05:31:37.127Z,99729.28
2023-01-15T05:34:05.771Z,99716.63
2023-01-15T05:36:35.445Z,99721.38
2023-01-15T05:39:05.338Z,99713.31
2023-01-15T05:41:52.791Z,99712.47
2023-01-15T05:44:25.831Z,99717.84
2023-01-15T05:46:58.851Z,99714.63
2023-01-15T05:49:31.877Z,99724.16
2023-01-15T05:52:03.193Z,99712.56
2023-01-15T05:54:36.516Z,99715.38
2023-01-15T05:57:06.409Z,99718.22
2023-01-15T05:59:35.553Z,99722.50
2023-01-15T06:02:04.801Z,99717.53
2023-01-15T06:04:34.412Z,99724.63
2023-01-15T06:07:02.964Z,99723.69
2023-01-15T06:09:33.160Z,99741.81
2023-01-15T06:12:02.072Z,99737.75
2023-01-15T06:14:32.918Z,99740.88
2023-01-15T06:17:01.897Z,99731.25
2023-01-15T06:19:31.500Z,99732.63
2023-01-15T06:22:00.108Z,99728.25
2023-01-15T06:24:29.262Z,99731.03
2023-01-15T06:27:04.407Z,99741.72
2023-01-15T06:29:39.675Z,99736.31
2023-01-15T06:32:09.275Z,99723.94
2023-01-15T06:34:44.624Z,99722.97
2023-01-15T06:37:18.770Z,99742.72
2023-01-15T06:39:53.279Z,99739.91
2023-01-15T06:42:45.821Z,99730.81
2023-01-15T06:45:33.199Z,99737.84
2023-01-15T06:48:04.088Z,99741.91
2023-01-15T06:50:32.933Z,99719.69
2023-01-15T06:53:01.830Z,99723.75
2023-01-15T06:55:32.084Z,99725.16
2023-01-15T06:58:04.543Z,99718.16
2023-01-15T07:00:33.619Z,99729.72
2023-01-15T07:03:03.013Z,99739.66
2023-01-15T07:05:37.873Z,99741.56
2023-01-15T07:08:09.676Z,99726.81
2023-01-15T07:10:38.615Z,99742.50
2023-01-15T07:13:12.183Z,99715.44
2023-01-15T07:15:42.804Z,99724.22
2023-01-15T07:18:11.488Z,99738.22
2023-01-15T07:20:41.201Z,99726.41
2023-01-15T07:23:10.699Z,99734.53
2023-01-15T07:25:39.296Z,99725.78
2023-01-15T07:28:10.230Z,99722.59
2023-01-15T07:30:39.735Z,99718.16
2023-01-15T07:33:08.711Z,99717.97
2023-01-15T07:35:37.851Z,99702.94
2023-01-15T07:38:06.955Z,99715.66
2023-01-15T07:40:35.401Z,99706.81
2023-01-15T07:43:21.517Z,99691.59
2023-01-15T07:46:09.828Z,99693.25
2023-01-15T07:48:55.917Z,99688.47
2023-01-15T07:51:25.065Z,99687.91
2023-01-15T07:53:53.603Z,99698.88
2023-01-15T07:56:24.957Z,99693.38
2023-01-15T07:58:53.695Z,99700.00
2023-01-15T08:01:23.903Z,99693.38
2023-01-15T08:03:52.531Z,99684.28
2023-01-15T08:06:21.731Z,99689.69
2023-01-15T08:08:50.551Z,99682.50
2023-01-15T08:11:37.247Z,99694.06
2023-01-15T08:14:23.570Z,99697.13
2023-01-15T08:16:54.068Z,99706.81
2023-01-15T08:19:25.115Z,99703.97
2023-01-15T08:21:53.881Z,99707.00
2023-01-15T08:24:22.586Z,99696.13
2023-01-15T08:26:51.340Z,99703.59
2023-01-15T08:29:20.575Z,99694.06
2023-01-15T08:31:49.623Z,99709.19
2023-01-15T08:34:19.819Z,99703.03
2023-01-15T08:36:49.644Z,99691.13
2023-01-15T08:39:18.055Z,99673.66
2023-01-15T08:41:52.177Z,99692.50
2023-01-15T08:44:43.895Z,99709.69
2023-01-15T08:47:12.715Z,99700.59
2023-01-15T08:49:42.901Z,99719.50
2023-01-15T08:52:12.143Z,99693.56
2023-01-15T08:54:42.299Z,99689.75
2023-01-15T08:57:12.659Z,99707.81
2023-01-15T08:59:43.643Z,99706.47
2023-01-15T09:02:15.948Z,99712.59
2023-01-15T09:04:46.345Z,99726.28
2023-01-15T09:07:15.378Z,99717.28
2023-01-15T09:09:45.204Z,99722.72
2023-01-15T09:12:19.314Z,99716.94
2023-01-15T09:14:59.699Z,99715.00
2023-01-15T09:17:33.784Z,99714.47
2023-01-15T09:20:04.655Z,99701.97
2023-01-15T09:22:33.620Z,99699.63
2023-01-15T09:25:05.968Z,99702.66
2023-01-15T09:27:35.404Z,99711.88
2023-01-15T09:30:05.840Z,99694.56
2023-01-15T09:32:34.902Z,99710.56
2023-01-15T09:41:31.672Z,99707.69
2023-01-15T09:44:44.541Z,99720.25
2023-01-15T09:47:24.276Z,99719.00
2023-01-15T09:50:12.321Z,99715.47
2023-01-15T09:53:26.639Z,99712.28
2023-01-15T09:56:03.803Z,99713.81
2023-01-15T09:58:39.441Z,99720.59
2023-01-15T10:01:18.756Z,99728.91
2023-01-15T10:06:58.064Z,99708.50
2023-01-15T10:12:40.216Z,99718.84
2023-01-15T10:15:37.804Z,99731.88
2023-01-15T10:18:09.313Z,99721.63
2023-01-15T10:21:06.940Z,99736.38
2023-01-15T10:23:40.348Z,99721.63
2023-01-15T10:26:45.293Z,99737.31
2023-01-15T10:29:28.837Z,99737.50
2023-01-15T10:35:25.152Z,99736.75
2023-01-15T10:38:00.500Z,99730.09
2023-01-15T10:44:01.912Z,99740.47
2023-01-15T10:46:41.927Z,99735.88
2023-01-15T10:49:16.596Z,99739.59
2023-01-15T10:54:40.044Z,99737.84
2023-01-15T10:57:12.309Z,99741.41
2023-01-15T11:05:45.886Z,99734.97
2023-01-15T11:11:57.670Z,99741.47
2023-01-15T11:14:53.594Z,99746.69
2023-01-15T11:17:46.413Z,99736.22
2023-01-15T11:20:31.181Z,99728.34
2023-01-15T11:23:10.409Z,99738.59
2023-01-15T11:25:44.733Z,99737.75
2023-01-15T11:28:15.400Z,99736.19
2023-01-15T11:30:45.318Z,99740.75
2023-01-15T11:33:26.764Z,99726.59
2023-01-15T11:35:58.618Z,99736.97
2023-01-15T11:38:29.236Z,99724.69
2023-01-15T11:41:00.588Z,99732.47
2023-01-15T11:43:49.315Z,99737.19
2023-01-15T11:46:53.366Z,99737.94
2023-01-15T11:49:41.383Z,99743.97
2023-01-15T11:52:14.323Z,99738.25
2023-01-15T11:54:47.192Z,99736.50
2023-01-15T11:57:28.392Z,99738.94
2023-01-15T11:59:58.086Z,99733.53
2023-01-15T12:02:39.564Z,99728.81
2023-01-15T12:05:18.182Z,99732.16
2023-01-15T12:07:48.818Z,99723.03
2023-01-15T12:10:43.164Z,99731.63
2023-01-15T12:13:28.181Z,99720.44
2023-01-15T12:16:22.735Z,99740.78
2023-01-15T12:18:59.197Z,99726.00
2023-01-15T12:21:58.428Z,99739.56
2023-01-15T12:25:08.975Z,99740.75
2023-01-15T12:28:00.173Z,99739.38
2023-01-15T12:30:49.554Z,99730.34
2023-01-15T12:33:34.090Z,99742.59
2023-01-15T12:36:10.177Z,99735.41
2023-01-15T12:38:52.066Z,99740.84
2023-01-15T12:41:50.026Z,99736.13
2023-01-15T12:44:41.365Z,99734.63
2023-01-15T12:47:18.206Z,99728.16
2023-01-15T12:49:54.895Z,99729.75
2023-01-15T12:52:30.551Z,99728.19
2023-01-15T12:55:10.639Z,99734.59
2023-01-15T12:57:44.997Z,99724.75
2023-01-15T13:00:20.763Z,99730.03
2023-01-15T13:03:08.682Z,99744.13
2023-01-15T13:05:47.734Z,99732.84
2023-01-15T13:08:24.710Z,99725.13
2023-01-15T13:10:55.440Z,99721.97
2023-01-15T13:13:30.251Z,99726.00
2023-01-15T13:16:11.420Z,99717.09
2023-01-15T13:19:06.062Z,99711.84
2023-01-15T13:21:39.007Z,99725.72
2023-01-15T13:24:35.356Z,99742.78
2023-01-15T13:27:26.659Z,99732.47
2023-01-15T13:30:17.321Z,99722.84
2023-01-15T13:32:50.855Z,99740.72
2023-01-15T13:35:31.639Z,99735.41
2023-01-15T13:38:03.781Z,99750.25
2023-01-15T13:40:41.050Z,99758.38
2023-01-15T13:43:35.575Z,99747.34
2023-01-15T13:46:07.996Z,99752.78
2023-01-15T13:48:45.316Z,99753.09
2023-01-15T13:51:30.536Z,99754.81
2023-01-15T13:54:28.679Z,99771.22
2023-01-15T13:57:09.767Z,99771.03
2023-01-15T14:00:00.262Z,99792.50
2023-01-15T14:02:32.407Z,99801.00
2023-01-15T14:05:04.092Z,99810.78
2023-01-15T14:07:37.000Z,99814.03
2023-01-15T14:10:33.625Z,99837.91
2023-01-15T14:13:50.651Z,99841.31
2023-01-15T14:16:47.752Z,99848.19
2023-01-15T14:19:39.282Z,99866.72
2023-01-15T14:22:37.663Z,99869.47
2023-01-15T14:25:34.038Z,99874.97
2023-01-15T14:28:26.532Z,99875.50
2023-01-15T14:31:39.268Z,99861.41
2023-01-15T14:34:24.129Z,99869.50
2023-01-15T14:37:00.218Z,99869.41
2023-01-15T14:39:37.828Z,99876.84
2023-01-15T14:42:34.819Z,99892.44
2023-01-15T14:45:10.146Z,99901.19
2023-01-15T14:47:46.821Z,99896.28
2023-01-15T14:50:38.400Z,99905.53
2023-01-15T14:53:43.104Z,99913.50
2023-01-15T14:56:22.913Z,99900.69
2023-01-15T14:59:00.510Z,99918.75
2023-01-15T15:01:42.721Z,99916.06
2023-01-15T15:04:24.713Z,99929.22
2023-01-15T15:06:56.905Z,99933.25
2023-01-15T15:09:39.724Z,99931.53
2023-01-15T15:12:27.028Z,99919.22
2023-01-15T15:15:06.218Z,99928.38
2023-01-15T15:17:48.975Z,99934.88
2023-01-15T15:20:29.261Z,99935.09
2023-01-15T15:23:06.065Z,99935.59
2023-01-15T15:25:41.643Z,99941.38
2023-01-15T15:28:13.448Z,99941.84
2023-01-15T15:30:46.122Z,99933.31
2023-01-15T15:33:20.706Z,99928.34
2023-01-15T15:35:54.028Z,99926.91
2023-01-15T15:38:25.538Z,99940.69
2023-01-15T15:40:57.500Z,99940.03
2023-01-15T15:43:49.430Z,99927.28
2023-01-15T15:46:45.679Z,99932.56
2023-01-15T15:49:15.171Z,99937.28
2023-01-15T15:51:50.400Z,99939.09
2023-01-15T15:54:21.203Z,99942.16
2023-01-15T15:56:55.771Z,99951.03
2023-01-15T15:59:35.447Z,99944.50
2023-01-15T16:02:17.795Z,99949.00
2023-01-15T16:04:48.646Z,99944.38
2023-01-15T16:07:28.188Z,99940.91
2023-01-15T16:10:02.023Z,99939.19
2023-01-15T16:12:35.491Z,99944.78
2023-01-15T16:15:05.423Z,99947.25
2023-01-15T16:17:34.917Z,99958.00
2023-01-15T16:20:04.113Z,99954.81
2023-01-15T16:22:34.953Z,99951.63
2023-01-15T16:25:06.287Z,99958.56
2023-01-15T16:27:37.465Z,99957.06
2023-01-15T16:30:07.348Z,99953.13
2023-01-15T16:32:45.481Z,99944.63
2023-01-15T16:35:20.401Z,99944.00
2023-01-15T16:37:54.812Z,99947.44
2023-01-15T16:40:29.611Z,99939.47
2023-01-15T16:43:08.178Z,99941.84
2023-01-15T16:45:40.361Z,99944.09
2023-01-15T16:48:27.557Z,99944.63
2023-01-15T16:50:56.425Z,99953.34
2023-01-15T16:53:40.792Z,99941.53
2023-01-15T16:56:29.260Z,99946.19
2023-01-15T16:58:58.207Z,99946.88
2023-01-15T17:01:36.529Z,99957.84
2023-01-15T17:04:45.134Z,99953.41
2023-01-15T17:07:20.840Z,99962.69
2023-01-15T17:09:54.179Z,99962.31
2023-01-15T17:12:29.225Z,99963.94
2023-01-15T17:15:29.636Z,99959.75
2023-01-15T17:17:58.321Z,99971.69
2023-01-15T17:20:28.030Z,99972.81
2023-01-15T17:22:57.161Z,99978.41
2023-01-15T17:25:30.982Z,99977.81
2023-01-15T17:28:01.417Z,99968.97
2023-01-15T17:30:31.713Z,99968.63
2023-01-15T17:33:00.675Z,99970.59
2023-01-15T17:35:32.541Z,99974.06
2023-01-15T17:38:01.061Z,99967.19
2023-01-15T17:40:32.796Z,99990.66
2023-01-15T17:43:04.689Z,99995.03
2023-01-15T17:45:34.985Z,99992.00
2023-01-15T17:48:04.084Z,99991.88
2023-01-15T17:50:32.542Z,99983.63
2023-01-15T17:53:01.242Z,99991.09
2023-01-15T17:56:05.445Z,99991.88
2023-01-15T17:58:51.987Z,100000.88
2023-01-15T18:01:41.913Z,100003.50
2023-01-15T18:04:37.290Z,100002.53
2023-01-15T18:07:06.648Z,100005.50
2023-01-15T18:09:36.861Z,100007.06
2023-01-15T18:12:08.722Z,100002.66
2023-01-15T18:14:37.402Z,100003.09
2023-01-15T18:17:06.386Z,100009.81
2023-01-15T18:19:35.216Z,99999.84
2023-01-15T18:22:04.416Z,100009.47
2023-01-15T18:24:33.153Z,100010.50
2023-01-15T18:27:01.552Z,100004.75
2023-01-15T18:29:32.089Z,99994.88
2023-01-15T18:32:00.709Z,99991.41
2023-01-15T18:34:31.128Z,99997.75
2023-01-15T18:36:59.806Z,100013.00
2023-01-15T18:39:30.192Z,100008.28
2023-01-15T18:42:16.474Z,100021.59
2023-01-15T18:45:18.444Z,99993.16
2023-01-15T18:47:48.667Z,100003.63
2023-01-15T18:50:18.174Z,100006.69
2023-01-15T18:52:52.653Z,99998.63
2023-01-15T18:55:23.326Z,100008.81
2023-01-15T18:57:52.619Z,100002.31
2023-01-15T19:00:25.456Z,100003.41
2023-01-15T19:02:57.467Z,100005.53
2023-01-15T19:05:26.561Z,100009.66
2023-01-15T19:07:55.362Z,99999.19
2023-01-15T19:10:24.145Z,99997.50
2023-01-15T19:12:52.915Z,100001.25
2023-01-15T19:15:40.676Z,100001.13
2023-01-15T19:18:30.486Z,99993.00
2023-01-15T19:21:13.195Z,99989.53
2023-01-15T19:23:41.946Z,99985.50
2023-01-15T19:26:12.471Z,99993.00
2023-01-15T19:28:42.333Z,99993.78
2023-01-15T19:31:34.834Z,99986.34
2023-01-15T19:34:32.256Z,99975.31
2023-01-15T19:37:05.383Z,99977.13
2023-01-15T19:39:36.644Z,99971.13
2023-01-15T19:42:31.083Z,99967.38
2023-01-15T19:45:21.194Z,99965.97
2023-01-15T19:48:10.769Z,99956.38
2023-01-15T19:50:42.665Z,99951.88
2023-01-15T19:53:23.714Z,99959.25
2023-01-15T19:55:53.744Z,99954.53
2023-01-15T19:58:22.924Z,99952.53
2023-01-15T20:00:57.519Z,99951.63
2023-01-15T20:03:36.777Z,99953.31
2023-01-15T20:06:12.452Z,99944.09
2023-01-15T20:08:42.695Z,99945.94
2023-01-15T20:11:11.365Z,99938.03
2023-01-15T20:13:53.330Z,99936.25
2023-01-15T20:16:25.659Z,99935.94
2023-01-15T20:18:56.476Z,99940.66
2023-01-15T20:21:25.148Z,99939.38
2023-01-15T20:23:53.855Z,99944.25
2023-01-15T20:26:24.343Z,99938.75
2023-01-15T20:28:53.121Z,99930.47
2023-01-15T20:31:22.797Z,99932.69
2023-01-15T20:33:51.551Z,99928.28
2023-01-15T20:36:22.167Z,99930.19
2023-01-15T20:38:51.252Z,99932.34
2023-01-15T20:41:37.865Z,99928.78
2023-01-15T20:44:24.452Z,99929.28
2023-01-15T20:46:53.450Z,99922.66
2023-01-15T20:49:29.142Z,99924.91
2023-01-15T20:52:02.045Z,99925.03
2023-01-15T20:54:32.324Z,99914.59
2023-01-15T20:57:01.888Z,99911.50
2023-01-15T20:59:31.788Z,99913.25
2023-01-15T21:02:00.956Z,99901.41
2023-01-15T21:04:31.962Z,99893.84
2023-01-15T21:07:02.578Z,99898.75
2023-01-15T21:09:31.569Z,99888.47
2023-01-15T21:12:01.635Z,99890.56
2023-01-15T21:14:30.716Z,99884.31
2023-01-15T21:16:59.858Z,99897.94
2023-01-15T21:19:30.414Z,99887.38
2023-01-15T21:21:59.027Z,99881.09
2023-01-15T21:24:29.177Z,99888.88
2023-01-15T21:26:57.684Z,99874.81
2023-01-15T21:29:26.345Z,99880.06
2023-01-15T21:31:55.299Z,99879.94
2023-01-15T21:34:24.535Z,99862.03
2023-01-15T21:36:54.222Z,99857.28
2023-01-15T21:39:23.184Z,99867.50
2023-01-15T21:42:11.743Z,99853.47
2023-01-15T21:44:44.711Z,99855.88
2023-01-15T21:47:16.976Z,99856.91
2023-01-15T21:49:46.857Z,99853.88
2023-01-15T21:52:17.823Z,99843.34
2023-01-15T21:54:48.450Z,99843.50
2023-01-15T21:57:19.371Z,99846.16
2023-01-15T21:59:48.172Z,99835.22
2023-01-15T22:02:20.520Z,99830.19
2023-01-15T22:04:50.040Z,99834.88
2023-01-15T22:07:20.483Z,99831.31
2023-01-15T22:09:49.257Z,99818.00
2023-01-15T22:12:19.896Z,99821.84
2023-01-15T22:14:49.288Z,99814.53
2023-01-15T22:17:18.286Z,99810.75
2023-01-15T22:19:46.947Z,99802.19
2023-01-15T22:22:16.057Z,99796.41
2023-01-15T22:24:45.057Z,99800.50
2023-01-15T22:27:20.181Z,99793.09
2023-01-15T22:29:49.277Z,99797.97
2023-01-15T22:32:18.076Z,99798.91
2023-01-15T22:34:49.517Z,99794.63
2023-01-15T22:37:18.117Z,99774.44
2023-01-15T22:39:47.246Z,99777.06
2023-01-15T22:42:31.144Z,99770.75
2023-01-15T22:45:04.241Z,99761.31
2023-01-15T22:47:33.099Z,99758.47
2023-01-15T22:50:02.310Z,99755.22
2023-01-15T22:52:31.395Z,99742.66
2023-01-15T22:55:00.596Z,99745.63
2023-01-15T22:57:30.936Z,99737.00
2023-01-15T23:00:01.154Z,99737.91
2023-01-15T23:02:48.036Z,99735.41
2023-01-15T23:05:17.051Z,99734.56
2023-01-15T23:07:46.087Z,99736.88
2023-01-15T23:10:16.040Z,99720.44
2023-01-15T23:12:44.762Z,99713.16
2023-01-15T23:15:16.376Z,99713.84
2023-01-15T23:17:45.298Z,99705.72
2023-01-15T23:20:15.687Z,99696.72
2023-01-15T23:22:44.623Z,99704.03
2023-01-15T23:25:13.508Z,99699.78
2023-01-15T23:27:42.919Z,99693.03
2023-01-15T23:30:14.674Z,99685.22
2023-01-15T23:32:43.762Z,99690.56
2023-01-15T23:35:12.607Z,99691.94
2023-01-15T23:37:41.423Z,99694.84
2023-01-15T23:40:12.896Z,99683.72
2023-01-15T23:42:59.172Z,99688.75
2023-01-15T23:45:46.816Z,99684.75
2023-01-15T23:48:15.968Z,99663.84
2023-01-15T23:50:44.847Z,99669.06
2023-01-15T23:53:13.787Z,99677.03
2023-01-15T23:55:42.548Z,99659.03
2023-01-15T23:58:11.443Z,99662.41
